sensor_id;sensor_type;location;lat;lon;timestamp;temperature;humidity
40696;DHT22;40425;51.102;17.208;2023-02-15T00:03:16;1.10;99.90
40696;DHT22;40425;51.102;17.208;2023-02-15T00:08:17;1.00;99.90
40696;DHT22;40425;51.102;17.208;2023-02-15T00:13:18;1.00;99.90
40696;DHT22;40425;51.102;17.208;2023-02-15T00:18:19;0.90;99.90
40696;DHT22;40425;51.102;17.208;2023-02-15T00:23:19;0.80;99.90
40696;DHT22;40425;51.102;17.208;2023-02-15T00:28:20;0.80;99.90
40696;DHT22;40425;51.102;17.208;2023-02-15T00:33:24;0.70;99.90
40696;DHT22;40425;51.102;17.208;2023-02-15T00:38:27;0.70;99.90
40696;DHT22;40425;51.102;17.208;2023-02-15T00:43:29;0.60;99.90
40696;DHT22;40425;51.102;17.208;2023-02-15T00:48:30;0.50;99.90
40696;DHT22;40425;51.102;17.208;2023-02-15T00:53:31;0.40;99.90
40696;DHT22;40425;51.102;17.208;2023-02-15T00:58:32;0.40;99.90
40696;DHT22;40425;51.102;17.208;2023-02-15T01:03:33;0.40;99.90
40696;DHT22;40425;51.102;17.208;2023-02-15T01:08:35;0.40;99.90
40696;DHT22;40425;51.102;17.208;2023-02-15T01:13:36;0.50;99.90
40696;DHT22;40425;51.102;17.208;2023-02-15T01:18:36;0.50;99.90
40696;DHT22;40425;51.102;17.208;2023-02-15T01:23:37;0.60;99.90
40696;DHT22;40425;51.102;17.208;2023-02-15T01:28:38;0.50;99.90
40696;DHT22;40425;51.102;17.208;2023-02-15T01:33:39;0.50;99.90
40696;DHT22;40425;51.102;17.208;2023-02-15T01:38:40;0.60;99.90
40696;DHT22;40425;51.102;17.208;2023-02-15T01:43:44;0.70;99.90
40696;DHT22;40425;51.102;17.208;2023-02-15T02:03:08;0.70;99.90
40696;DHT22;40425;51.102;17.208;2023-02-15T02:08:10;0.50;99.90
40696;DHT22;40425;51.102;17.208;2023-02-15T02:13:11;0.50;99.90
40696;DHT22;40425;51.102;17.208;2023-02-15T02:18:21;0.40;99.90
40696;DHT22;40425;51.102;17.208;2023-02-15T02:34:05;0.00;99.90
40696;DHT22;40425;51.102;17.208;2023-02-15T02:44:49;0.00;99.90
40696;DHT22;40425;51.102;17.208;2023-02-15T02:49:58;0.00;99.90
40696;DHT22;40425;51.102;17.208;2023-02-15T02:54:59;0.00;99.90
40696;DHT22;40425;51.102;17.208;2023-02-15T03:00:03;-0.10;99.90
40696;DHT22;40425;51.102;17.208;2023-02-15T03:05:09;-0.20;99.90
40696;DHT22;40425;51.102;17.208;2023-02-15T03:10:11;-0.20;99.90
40696;DHT22;40425;51.102;17.208;2023-02-15T03:15:20;-0.30;99.90
40696;DHT22;40425;51.102;17.208;2023-02-15T03:20:33;-0.30;99.90
40696;DHT22;40425;51.102;17.208;2023-02-15T03:25:40;-0.30;99.90
40696;DHT22;40425;51.102;17.208;2023-02-15T03:30:45;-0.30;99.90
40696;DHT22;40425;51.102;17.208;2023-02-15T03:41:02;-0.30;99.90
40696;DHT22;40425;51.102;17.208;2023-02-15T03:51:32;-0.30;99.90
40696;DHT22;40425;51.102;17.208;2023-02-15T03:56:36;-0.40;99.90
40696;DHT22;40425;51.102;17.208;2023-02-15T04:01:40;-0.50;99.90
40696;DHT22;40425;51.102;17.208;2023-02-15T04:06:57;-0.50;99.90
40696;DHT22;40425;51.102;17.208;2023-02-15T04:11:59;-0.50;99.90
40696;DHT22;40425;51.102;17.208;2023-02-15T04:16:59;-0.50;99.90
40696;DHT22;40425;51.102;17.208;2023-02-15T04:22:00;-0.40;99.90
40696;DHT22;40425;51.102;17.208;2023-02-15T04:27:19;-0.40;99.90
40696;DHT22;40425;51.102;17.208;2023-02-15T04:32:20;-0.30;99.90
40696;DHT22;40425;51.102;17.208;2023-02-15T04:37:21;-0.20;99.90
40696;DHT22;40425;51.102;17.208;2023-02-15T04:42:22;-0.30;99.90
40696;DHT22;40425;51.102;17.208;2023-02-15T04:47:23;-0.20;99.90
40696;DHT22;40425;51.102;17.208;2023-02-15T04:52:24;-0.20;99.90
40696;DHT22;40425;51.102;17.208;2023-02-15T04:57:25;-0.20;99.90
40696;DHT22;40425;51.102;17.208;2023-02-15T05:02:26;-0.30;99.90
40696;DHT22;40425;51.102;17.208;2023-02-15T05:07:27;-0.30;99.90
40696;DHT22;40425;51.102;17.208;2023-02-15T05:12:28;-0.30;99.90
40696;DHT22;40425;51.102;17.208;2023-02-15T05:17:28;-0.30;99.90
40696;DHT22;40425;51.102;17.208;2023-02-15T05:22:29;-0.30;99.90
40696;DHT22;40425;51.102;17.208;2023-02-15T05:27:30;-0.20;99.90
40696;DHT22;40425;51.102;17.208;2023-02-15T05:32:49;-0.20;99.90
40696;DHT22;40425;51.102;17.208;2023-02-15T05:37:50;-0.20;99.90
40696;DHT22;40425;51.102;17.208;2023-02-15T05:42:51;-0.10;99.90
40696;DHT22;40425;51.102;17.208;2023-02-15T05:47:52;-0.10;99.90
40696;DHT22;40425;51.102;17.208;2023-02-15T05:52:53;-0.10;99.90
40696;DHT22;40425;51.102;17.208;2023-02-15T05:57:53;-0.20;99.90
40696;DHT22;40425;51.102;17.208;2023-02-15T06:02:54;-0.30;99.90
40696;DHT22;40425;51.102;17.208;2023-02-15T06:07:55;-0.20;99.90
40696;DHT22;40425;51.102;17.208;2023-02-15T06:12:56;-0.10;99.90
40696;DHT22;40425;51.102;17.208;2023-02-15T06:17:57;-0.10;99.90
40696;DHT22;40425;51.102;17.208;2023-02-15T06:22:58;0.00;99.90
40696;DHT22;40425;51.102;17.208;2023-02-15T06:27:59;0.00;99.90
40696;DHT22;40425;51.102;17.208;2023-02-15T06:33:00;0.10;99.90
40696;DHT22;40425;51.102;17.208;2023-02-15T06:38:01;0.20;99.90
40696;DHT22;40425;51.102;17.208;2023-02-15T06:43:02;0.30;99.90
40696;DHT22;40425;51.102;17.208;2023-02-15T06:48:03;0.40;99.90
40696;DHT22;40425;51.102;17.208;2023-02-15T06:53:05;0.50;99.90
40696;DHT22;40425;51.102;17.208;2023-02-15T06:58:06;0.60;99.90
40696;DHT22;40425;51.102;17.208;2023-02-15T07:03:07;0.60;99.90
40696;DHT22;40425;51.102;17.208;2023-02-15T07:08:08;0.60;99.90
40696;DHT22;40425;51.102;17.208;2023-02-15T07:13:09;0.80;99.90
40696;DHT22;40425;51.102;17.208;2023-02-15T07:18:10;0.90;99.90
40696;DHT22;40425;51.102;17.208;2023-02-15T07:23:11;1.10;99.90
40696;DHT22;40425;51.102;17.208;2023-02-15T07:28:12;1.10;99.90
40696;DHT22;40425;51.102;17.208;2023-02-15T07:33:13;1.20;99.90
40696;DHT22;40425;51.102;17.208;2023-02-15T07:38:31;1.30;99.90
40696;DHT22;40425;51.102;17.208;2023-02-15T07:43:34;1.50;99.90
40696;DHT22;40425;51.102;17.208;2023-02-15T07:48:36;1.50;99.90
40696;DHT22;40425;51.102;17.208;2023-02-15T07:53:38;1.60;99.90
40696;DHT22;40425;51.102;17.208;2023-02-15T07:58:39;1.70;99.90
40696;DHT22;40425;51.102;17.208;2023-02-15T08:03:53;1.80;99.90
40696;DHT22;40425;51.102;17.208;2023-02-15T08:08:56;1.80;99.90
40696;DHT22;40425;51.102;17.208;2023-02-15T08:14:17;1.90;99.90
40696;DHT22;40425;51.102;17.208;2023-02-15T08:19:21;2.00;99.90
40696;DHT22;40425;51.102;17.208;2023-02-15T08:24:24;2.10;99.90
40696;DHT22;40425;51.102;17.208;2023-02-15T08:29:28;2.20;99.90
40696;DHT22;40425;51.102;17.208;2023-02-15T08:34:31;2.20;99.90
40696;DHT22;40425;51.102;17.208;2023-02-15T08:39:32;2.30;99.90
40696;DHT22;40425;51.102;17.208;2023-02-15T08:44:33;2.30;99.90
40696;DHT22;40425;51.102;17.208;2023-02-15T08:49:34;2.40;99.90
40696;DHT22;40425;51.102;17.208;2023-02-15T08:54:35;2.50;99.90
40696;DHT22;40425;51.102;17.208;2023-02-15T08:59:36;2.60;99.90
40696;DHT22;40425;51.102;17.208;2023-02-15T09:04:37;2.70;99.90
40696;DHT22;40425;51.102;17.208;2023-02-15T09:09:38;2.90;99.90
40696;DHT22;40425;51.102;17.208;2023-02-15T09:14:38;3.10;99.90
40696;DHT22;40425;51.102;17.208;2023-02-15T09:19:39;3.20;99.90
40696;DHT22;40425;51.102;17.208;2023-02-15T09:24:40;3.40;99.90
40696;DHT22;40425;51.102;17.208;2023-02-15T09:29:41;3.60;99.90
40696;DHT22;40425;51.102;17.208;2023-02-15T09:34:42;3.70;99.90
40696;DHT22;40425;51.102;17.208;2023-02-15T09:39:50;3.90;99.90
40696;DHT22;40425;51.102;17.208;2023-02-15T09:50:19;4.10;99.90
40696;DHT22;40425;51.102;17.208;2023-02-15T09:55:56;4.30;99.90
40696;DHT22;40425;51.102;17.208;2023-02-15T10:06:16;4.60;99.90
40696;DHT22;40425;51.102;17.208;2023-02-15T10:28:06;5.00;99.90
40696;DHT22;40425;51.102;17.208;2023-02-15T10:33:40;5.10;99.90
40696;DHT22;40425;51.102;17.208;2023-02-15T10:38:53;5.20;99.90
40696;DHT22;40425;51.102;17.208;2023-02-15T10:44:19;5.30;99.90
40696;DHT22;40425;51.102;17.208;2023-02-15T11:05:35;5.70;99.90
40696;DHT22;40425;51.102;17.208;2023-02-15T11:10:58;5.70;99.90
40696;DHT22;40425;51.102;17.208;2023-02-15T11:16:14;5.80;99.90
40696;DHT22;40425;51.102;17.208;2023-02-15T11:21:37;5.80;99.90
40696;DHT22;40425;51.102;17.208;2023-02-15T11:26:41;6.00;99.90
40696;DHT22;40425;51.102;17.208;2023-02-15T11:31:46;6.00;99.90
40696;DHT22;40425;51.102;17.208;2023-02-15T11:36:49;6.10;99.90
40696;DHT22;40425;51.102;17.208;2023-02-15T11:41:55;6.10;99.90
40696;DHT22;40425;51.102;17.208;2023-02-15T11:46:57;6.20;99.90
40696;DHT22;40425;51.102;17.208;2023-02-15T11:52:02;6.20;99.90
40696;DHT22;40425;51.102;17.208;2023-02-15T11:57:31;6.30;99.90
40696;DHT22;40425;51.102;17.208;2023-02-15T12:02:37;6.40;99.90
40696;DHT22;40425;51.102;17.208;2023-02-15T12:08:00;6.50;99.90
40696;DHT22;40425;51.102;17.208;2023-02-15T12:13:17;6.60;99.90
40696;DHT22;40425;51.102;17.208;2023-02-15T12:23:52;6.70;99.90
40696;DHT22;40425;51.102;17.208;2023-02-15T12:28:57;6.90;99.90
40696;DHT22;40425;51.102;17.208;2023-02-15T12:34:03;7.00;99.90
40696;DHT22;40425;51.102;17.208;2023-02-15T12:44:21;7.10;99.90
40696;DHT22;40425;51.102;17.208;2023-02-15T12:49:25;7.10;99.90
40696;DHT22;40425;51.102;17.208;2023-02-15T12:54:41;7.10;99.90
40696;DHT22;40425;51.102;17.208;2023-02-15T12:59:54;7.20;99.90
40696;DHT22;40425;51.102;17.208;2023-02-15T13:04:57;7.30;99.90
40696;DHT22;40425;51.102;17.208;2023-02-15T13:10:05;7.40;99.90
40696;DHT22;40425;51.102;17.208;2023-02-15T13:15:31;7.40;99.90
40696;DHT22;40425;51.102;17.208;2023-02-15T13:20:34;7.50;99.90
40696;DHT22;40425;51.102;17.208;2023-02-15T13:25:47;7.50;99.90
40696;DHT22;40425;51.102;17.208;2023-02-15T13:30:51;7.50;99.90
40696;DHT22;40425;51.102;17.208;2023-02-15T13:47:02;7.70;99.90
40696;DHT22;40425;51.102;17.208;2023-02-15T13:52:08;7.70;99.90
40696;DHT22;40425;51.102;17.208;2023-02-15T14:03:40;7.70;99.90
40696;DHT22;40425;51.102;17.208;2023-02-15T14:24:14;7.70;99.90
40696;DHT22;40425;51.102;17.208;2023-02-15T14:34:46;7.70;99.90
40696;DHT22;40425;51.102;17.208;2023-02-15T14:40:05;7.60;99.90
40696;DHT22;40425;51.102;17.208;2023-02-15T14:50:49;7.50;99.90
40696;DHT22;40425;51.102;17.208;2023-02-15T14:56:18;7.40;99.90
40696;DHT22;40425;51.102;17.208;2023-02-15T15:01:36;7.40;99.90
40696;DHT22;40425;51.102;17.208;2023-02-15T15:06:40;7.30;99.90
40696;DHT22;40425;51.102;17.208;2023-02-15T15:11:45;7.30;99.90
40696;DHT22;40425;51.102;17.208;2023-02-15T15:16:48;7.20;99.90
40696;DHT22;40425;51.102;17.208;2023-02-15T15:32:33;7.00;99.90
40696;DHT22;40425;51.102;17.208;2023-02-15T15:48:40;6.60;99.90
40696;DHT22;40425;51.102;17.208;2023-02-15T15:53:47;6.50;99.90
40696;DHT22;40425;51.102;17.208;2023-02-15T15:59:27;6.40;99.90
40696;DHT22;40425;51.102;17.208;2023-02-15T16:04:32;6.30;99.90
40696;DHT22;40425;51.102;17.208;2023-02-15T16:09:36;6.20;99.90
40696;DHT22;40425;51.102;17.208;2023-02-15T16:14:38;6.10;99.90
40696;DHT22;40425;51.102;17.208;2023-02-15T16:19:43;5.90;99.90
40696;DHT22;40425;51.102;17.208;2023-02-15T16:25:07;5.80;99.90
40696;DHT22;40425;51.102;17.208;2023-02-15T16:35:23;5.60;99.90
40696;DHT22;40425;51.102;17.208;2023-02-15T16:45:29;5.30;99.90
40696;DHT22;40425;51.102;17.208;2023-02-15T16:50:34;5.20;99.90
40696;DHT22;40425;51.102;17.208;2023-02-15T16:55:40;5.10;99.90
40696;DHT22;40425;51.102;17.208;2023-02-15T17:00:42;5.00;99.90
40696;DHT22;40425;51.102;17.208;2023-02-15T17:11:05;4.90;99.90
40696;DHT22;40425;51.102;17.208;2023-02-15T17:16:21;4.80;99.90
40696;DHT22;40425;51.102;17.208;2023-02-15T17:21:27;4.90;99.90
40696;DHT22;40425;51.102;17.208;2023-02-15T17:26:34;4.80;99.90
40696;DHT22;40425;51.102;17.208;2023-02-15T17:31:35;4.80;99.90
40696;DHT22;40425;51.102;17.208;2023-02-15T17:36:57;4.70;99.90
40696;DHT22;40425;51.102;17.208;2023-02-15T17:41:58;4.50;99.90
40696;DHT22;40425;51.102;17.208;2023-02-15T17:46:59;4.30;99.90
40696;DHT22;40425;51.102;17.208;2023-02-15T17:52:01;4.10;99.90
40696;DHT22;40425;51.102;17.208;2023-02-15T17:57:02;4.00;99.90
40696;DHT22;40425;51.102;17.208;2023-02-15T18:02:08;4.00;99.90
40696;DHT22;40425;51.102;17.208;2023-02-15T18:07:29;3.70;99.90
40696;DHT22;40425;51.102;17.208;2023-02-15T18:12:49;3.50;99.90
40696;DHT22;40425;51.102;17.208;2023-02-15T18:17:49;3.40;99.90
40696;DHT22;40425;51.102;17.208;2023-02-15T18:22:51;3.40;99.90
40696;DHT22;40425;51.102;17.208;2023-02-15T18:27:52;3.40;99.90
40696;DHT22;40425;51.102;17.208;2023-02-15T18:32:55;3.40;99.90
40696;DHT22;40425;51.102;17.208;2023-02-15T18:37:58;3.40;99.90
40696;DHT22;40425;51.102;17.208;2023-02-15T18:42:59;3.40;99.90
40696;DHT22;40425;51.102;17.208;2023-02-15T18:48:00;3.40;99.90
40696;DHT22;40425;51.102;17.208;2023-02-15T18:53:03;3.40;99.90
40696;DHT22;40425;51.102;17.208;2023-02-15T18:58:05;3.30;99.90
40696;DHT22;40425;51.102;17.208;2023-02-15T19:03:06;3.20;99.90
40696;DHT22;40425;51.102;17.208;2023-02-15T19:08:16;3.20;99.90
40696;DHT22;40425;51.102;17.208;2023-02-15T19:13:17;3.20;99.90
40696;DHT22;40425;51.102;17.208;2023-02-15T19:18:18;3.20;99.90
40696;DHT22;40425;51.102;17.208;2023-02-15T19:23:23;3.20;99.90
40696;DHT22;40425;51.102;17.208;2023-02-15T19:28:30;3.20;99.90
40696;DHT22;40425;51.102;17.208;2023-02-15T19:33:32;3.10;99.90
40696;DHT22;40425;51.102;17.208;2023-02-15T19:38:34;3.10;99.90
40696;DHT22;40425;51.102;17.208;2023-02-15T19:43:36;3.00;99.90
40696;DHT22;40425;51.102;17.208;2023-02-15T19:48:37;2.70;99.90
40696;DHT22;40425;51.102;17.208;2023-02-15T19:53:38;2.60;99.90
40696;DHT22;40425;51.102;17.208;2023-02-15T19:58:40;2.60;99.90
40696;DHT22;40425;51.102;17.208;2023-02-15T20:03:40;2.60;99.90
40696;DHT22;40425;51.102;17.208;2023-02-15T20:08:42;2.50;99.90
40696;DHT22;40425;51.102;17.208;2023-02-15T20:13:43;2.30;99.90
40696;DHT22;40425;51.102;17.208;2023-02-15T20:18:44;2.20;99.90
40696;DHT22;40425;51.102;17.208;2023-02-15T20:23:46;2.30;99.90
40696;DHT22;40425;51.102;17.208;2023-02-15T20:28:46;2.20;99.90
40696;DHT22;40425;51.102;17.208;2023-02-15T20:33:48;2.10;99.90
40696;DHT22;40425;51.102;17.208;2023-02-15T20:38:49;2.00;99.90
40696;DHT22;40425;51.102;17.208;2023-02-15T20:43:50;2.20;99.90
40696;DHT22;40425;51.102;17.208;2023-02-15T20:48:51;2.20;99.90
40696;DHT22;40425;51.102;17.208;2023-02-15T20:53:52;2.30;99.90
40696;DHT22;40425;51.102;17.208;2023-02-15T20:58:53;2.30;99.90
40696;DHT22;40425;51.102;17.208;2023-02-15T21:03:54;2.10;99.90
40696;DHT22;40425;51.102;17.208;2023-02-15T21:08:54;2.10;99.90
40696;DHT22;40425;51.102;17.208;2023-02-15T21:13:56;2.10;99.90
40696;DHT22;40425;51.102;17.208;2023-02-15T21:18:57;2.00;99.90
40696;DHT22;40425;51.102;17.208;2023-02-15T21:23:57;1.90;99.90
40696;DHT22;40425;51.102;17.208;2023-02-15T21:28:58;1.80;99.90
40696;DHT22;40425;51.102;17.208;2023-02-15T21:33:59;1.70;99.90
40696;DHT22;40425;51.102;17.208;2023-02-15T21:39:01;1.50;99.90
40696;DHT22;40425;51.102;17.208;2023-02-15T21:44:05;1.50;99.90
40696;DHT22;40425;51.102;17.208;2023-02-15T21:49:30;1.60;99.90
40696;DHT22;40425;51.102;17.208;2023-02-15T21:54:31;1.50;99.90
40696;DHT22;40425;51.102;17.208;2023-02-15T21:59:32;1.40;99.90
40696;DHT22;40425;51.102;17.208;2023-02-15T22:04:33;1.30;99.90
40696;DHT22;40425;51.102;17.208;2023-02-15T22:09:34;1.30;99.90
40696;DHT22;40425;51.102;17.208;2023-02-15T22:14:37;1.30;99.90
40696;DHT22;40425;51.102;17.208;2023-02-15T22:19:39;1.20;99.90
40696;DHT22;40425;51.102;17.208;2023-02-15T22:24:40;1.10;99.90
40696;DHT22;40425;51.102;17.208;2023-02-15T22:29:41;1.00;99.90
40696;DHT22;40425;51.102;17.208;2023-02-15T22:34:42;1.10;99.90
40696;DHT22;40425;51.102;17.208;2023-02-15T22:39:43;1.00;99.90
40696;DHT22;40425;51.102;17.208;2023-02-15T22:44:45;1.00;99.90
40696;DHT22;40425;51.102;17.208;2023-02-15T22:49:46;1.00;99.90
40696;DHT22;40425;51.102;17.208;2023-02-15T22:54:47;0.90;99.90
40696;DHT22;40425;51.102;17.208;2023-02-15T22:59:48;0.80;99.90
40696;DHT22;40425;51.102;17.208;2023-02-15T23:04:49;0.80;99.90
40696;DHT22;40425;51.102;17.208;2023-02-15T23:09:50;0.80;99.90
40696;DHT22;40425;51.102;17.208;2023-02-15T23:14:51;0.70;99.90
40696;DHT22;40425;51.102;17.208;2023-02-15T23:19:52;0.80;99.90
40696;DHT22;40425;51.102;17.208;2023-02-15T23:24:53;0.80;99.90
40696;DHT22;40425;51.102;17.208;2023-02-15T23:29:54;0.80;99.90
40696;DHT22;40425;51.102;17.208;2023-02-15T23:34:55;0.90;99.90
40696;DHT22;40425;51.102;17.208;2023-02-15T23:39:56;0.80;99.90
40696;DHT22;40425;51.102;17.208;2023-02-15T23:45:21;0.70;99.90
40696;DHT22;40425;51.102;17.208;2023-02-15T23:50:26;0.60;99.90
40696;DHT22;40425;51.102;17.208;2023-02-15T23:55:35;0.60;99.90
